createdAt,value
2019-06-27T00:00:42.161Z,15.60
2019-06-27T00:03:12.915Z,15.80
2019-06-27T00:05:43.523Z,15.80
2019-06-27T00:08:14.106Z,15.80
2019-06-27T00:10:44.950Z,15.70
2019-06-27T00:13:15.440Z,15.70
2019-06-27T00:15:45.941Z,15.70
2019-06-27T00:18:16.531Z,15.70
2019-06-27T00:20:47.183Z,15.60
2019-06-27T00:23:17.735Z,15.70
2019-06-27T00:25:48.418Z,15.60
2019-06-27T00:28:18.840Z,15.60
2019-06-27T00:30:49.325Z,15.70
2019-06-27T00:33:19.940Z,15.70
2019-06-27T00:35:50.571Z,15.70
2019-06-27T00:38:21.131Z,15.50
2019-06-27T00:40:51.723Z,15.50
2019-06-27T00:43:22.235Z,15.60
2019-06-27T00:45:53.735Z,15.60
2019-06-27T00:48:24.528Z,15.40
2019-06-27T00:50:55.074Z,15.40
2019-06-27T00:53:26.552Z,15.40
2019-06-27T00:55:57.163Z,15.40
2019-06-27T00:58:27.730Z,15.50
2019-06-27T01:00:59.274Z,15.40
2019-06-27T01:03:29.807Z,15.40
2019-06-27T01:06:00.410Z,15.30
2019-06-27T01:08:31.157Z,15.30
2019-06-27T01:11:01.793Z,15.50
2019-06-27T01:13:32.578Z,15.40
2019-06-27T01:16:03.215Z,15.30
2019-06-27T01:18:34.453Z,15.30
2019-06-27T01:21:05.225Z,15.30
2019-06-27T01:23:47.646Z,15.30
2019-06-27T01:26:18.196Z,15.20
2019-06-27T01:28:48.706Z,15.20
2019-06-27T01:31:19.321Z,15.30
2019-06-27T01:33:50.040Z,15.10
2019-06-27T01:36:20.622Z,15.10
2019-06-27T01:38:51.097Z,15.00
2019-06-27T01:41:21.768Z,14.90
2019-06-27T01:43:52.650Z,14.90
2019-06-27T01:46:24.123Z,15.00
2019-06-27T01:48:54.672Z,15.00
2019-06-27T01:51:25.724Z,14.90
2019-06-27T01:53:56.214Z,14.90
2019-06-27T01:56:28.693Z,15.00
2019-06-27T01:58:59.251Z,14.80
2019-06-27T02:01:29.880Z,14.60
2019-06-27T02:04:01.360Z,14.40
2019-06-27T02:06:31.968Z,14.40
2019-06-27T02:09:02.677Z,14.40
2019-06-27T02:11:33.418Z,14.30
2019-06-27T02:14:04.033Z,14.30
2019-06-27T02:16:34.605Z,14.30
2019-06-27T02:19:05.333Z,14.10
2019-06-27T02:21:36.036Z,14.00
2019-06-27T02:24:07.560Z,13.90
2019-06-27T02:26:38.203Z,13.80
2019-06-27T02:29:08.753Z,13.80
2019-06-27T02:31:40.412Z,13.80
2019-06-27T02:34:10.881Z,13.80
2019-06-27T02:36:41.459Z,13.70
2019-06-27T02:39:11.896Z,13.70
2019-06-27T02:41:42.439Z,13.70
2019-06-27T02:44:13.482Z,13.70
2019-06-27T02:46:56.017Z,13.70
2019-06-27T02:49:26.724Z,13.60
2019-06-27T02:51:58.929Z,13.50
2019-06-27T02:54:29.424Z,13.50
2019-06-27T02:56:59.961Z,13.60
2019-06-27T02:59:30.669Z,13.60
2019-06-27T03:02:01.238Z,13.60
2019-06-27T03:04:33.174Z,13.60
2019-06-27T03:07:03.758Z,13.60
2019-06-27T03:09:34.515Z,13.60
2019-06-27T03:12:05.157Z,13.50
2019-06-27T03:14:35.747Z,13.50
2019-06-27T03:17:06.468Z,13.50
2019-06-27T03:19:36.914Z,13.60
2019-06-27T03:22:07.655Z,13.50
2019-06-27T03:24:38.117Z,13.60
2019-06-27T03:27:08.846Z,13.60
2019-06-27T03:29:39.316Z,13.70
2019-06-27T03:32:10.254Z,13.70
2019-06-27T03:34:40.838Z,13.80
2019-06-27T03:37:11.429Z,13.80
2019-06-27T03:39:42.038Z,13.80
2019-06-27T03:42:12.706Z,13.80
2019-06-27T03:44:44.400Z,13.90
2019-06-27T03:47:14.853Z,13.90
2019-06-27T03:49:45.899Z,13.90
2019-06-27T03:52:16.985Z,14.00
2019-06-27T03:54:47.476Z,14.00
2019-06-27T03:57:18.396Z,14.00
2019-06-27T03:59:49.042Z,14.00
2019-06-27T04:02:19.598Z,14.20
2019-06-27T04:04:50.451Z,14.10
2019-06-27T04:07:21.100Z,14.20
2019-06-27T04:09:51.639Z,14.20
2019-06-27T04:12:22.606Z,14.20
2019-06-27T04:14:53.258Z,14.20
2019-06-27T04:17:23.728Z,14.10
2019-06-27T04:19:54.287Z,14.20
2019-06-27T04:22:25.773Z,14.40
2019-06-27T04:24:56.453Z,14.40
2019-06-27T04:27:27.007Z,14.40
2019-06-27T04:29:57.568Z,14.40
2019-06-27T04:32:28.098Z,14.50
2019-06-27T04:34:58.580Z,14.60
2019-06-27T04:37:29.298Z,14.60
2019-06-27T04:39:59.886Z,14.60
2019-06-27T04:42:30.583Z,14.80
2019-06-27T04:45:01.898Z,14.80
2019-06-27T04:47:32.502Z,14.70
2019-06-27T04:50:04.004Z,14.60
2019-06-27T04:52:35.109Z,14.50
2019-06-27T04:55:06.404Z,14.50
2019-06-27T04:57:37.041Z,14.70
2019-06-27T05:00:08.731Z,14.90
2019-06-27T05:02:39.302Z,15.10
2019-06-27T05:05:09.995Z,15.10
2019-06-27T05:07:40.536Z,15.20
2019-06-27T05:10:11.201Z,15.10
2019-06-27T05:12:41.617Z,15.00
2019-06-27T05:15:12.949Z,14.80
2019-06-27T05:17:43.656Z,14.80
2019-06-27T05:20:14.242Z,14.90
2019-06-27T05:22:44.805Z,15.10
2019-06-27T05:25:15.379Z,15.20
2019-06-27T05:27:46.766Z,15.40
2019-06-27T05:30:18.333Z,15.50
2019-06-27T05:32:48.998Z,15.40
2019-06-27T05:35:19.520Z,15.40
2019-06-27T05:37:50.102Z,15.40
2019-06-27T05:40:20.736Z,15.50
2019-06-27T05:42:51.423Z,15.80
2019-06-27T05:45:22.799Z,15.90
2019-06-27T05:47:53.342Z,15.80
2019-06-27T05:50:23.986Z,15.80
2019-06-27T05:52:54.614Z,15.80
2019-06-27T05:55:25.698Z,15.80
2019-06-27T05:57:56.520Z,15.90
2019-06-27T06:00:29.535Z,15.90
2019-06-27T06:03:00.801Z,15.80
2019-06-27T06:05:31.373Z,16.00
2019-06-27T06:08:01.918Z,16.10
2019-06-27T06:11:05.476Z,16.10
2019-06-27T06:13:39.679Z,16.20
2019-06-27T06:16:11.369Z,16.10
2019-06-27T06:18:42.056Z,16.30
2019-06-27T06:21:12.683Z,16.20
2019-06-27T06:23:44.248Z,16.20
2019-06-27T06:26:14.724Z,16.40
2019-06-27T06:28:45.268Z,16.90
2019-06-27T06:31:15.804Z,17.20
2019-06-27T06:33:46.314Z,16.80
2019-06-27T06:36:17.094Z,16.90
2019-06-27T06:38:47.656Z,16.80
2019-06-27T06:41:18.388Z,17.00
2019-06-27T06:43:48.951Z,16.80
2019-06-27T06:46:19.550Z,16.80
2019-06-27T06:48:50.014Z,16.90
2019-06-27T06:51:20.384Z,17.10
2019-06-27T06:53:52.705Z,17.10
2019-06-27T06:56:23.673Z,17.10
2019-06-27T06:58:55.566Z,17.30
2019-06-27T07:01:25.950Z,17.60
2019-06-27T07:03:59.403Z,17.90
2019-06-27T07:06:30.116Z,18.00
2019-06-27T07:09:05.330Z,17.90
2019-06-27T07:11:37.727Z,18.20
2019-06-27T07:14:08.252Z,18.50
2019-06-27T07:16:38.916Z,18.40
2019-06-27T07:19:09.467Z,19.30
2019-06-27T07:21:40.099Z,19.60
2019-06-27T07:24:10.766Z,18.60
2019-06-27T07:26:41.358Z,18.00
2019-06-27T07:29:11.858Z,17.60
2019-06-27T07:31:42.532Z,17.80
2019-06-27T07:34:13.051Z,17.90
2019-06-27T07:36:43.856Z,18.30
2019-06-27T07:39:14.313Z,17.90
2019-06-27T07:41:44.801Z,17.90
2019-06-27T07:44:15.490Z,17.90
2019-06-27T07:46:46.147Z,18.00
2019-06-27T07:49:16.808Z,18.10
2019-06-27T07:51:47.239Z,18.00
2019-06-27T07:54:17.849Z,18.10
2019-06-27T07:56:50.874Z,18.40
2019-06-27T07:59:21.473Z,18.40
2019-06-27T08:01:52.056Z,18.40
2019-06-27T08:04:22.837Z,18.50
2019-06-27T08:06:53.424Z,18.40
2019-06-27T08:09:24.206Z,18.30
2019-06-27T08:11:54.820Z,18.00
2019-06-27T08:14:25.547Z,18.30
2019-06-27T08:16:56.129Z,18.60
2019-06-27T08:19:26.763Z,18.50
2019-06-27T08:21:57.954Z,18.50
2019-06-27T08:24:28.457Z,18.40
2019-06-27T08:26:59.110Z,18.70
2019-06-27T08:29:29.584Z,18.60
2019-06-27T08:32:00.210Z,18.30
2019-06-27T08:34:30.776Z,18.50
2019-06-27T08:37:01.274Z,19.00
2019-06-27T08:39:31.901Z,18.70
2019-06-27T08:42:02.335Z,18.60
2019-06-27T08:44:33.314Z,18.70
2019-06-27T08:47:18.018Z,18.80
2019-06-27T08:49:48.613Z,18.70
2019-06-27T08:52:19.217Z,18.60
2019-06-27T08:54:50.217Z,18.60
2019-06-27T08:57:21.444Z,18.70
2019-06-27T08:59:54.043Z,18.70
2019-06-27T09:02:24.692Z,18.70
2019-06-27T09:04:55.416Z,18.60
2019-06-27T09:07:25.966Z,18.60
2019-06-27T09:09:56.615Z,18.40
2019-06-27T09:12:27.223Z,18.40
2019-06-27T09:14:58.135Z,18.20
2019-06-27T09:17:28.724Z,18.40
2019-06-27T09:19:59.227Z,18.30
2019-06-27T09:22:29.815Z,18.30
2019-06-27T09:25:00.279Z,18.30
2019-06-27T09:27:30.837Z,18.30
2019-06-27T09:30:01.573Z,18.60
2019-06-27T09:32:32.580Z,18.30
2019-06-27T09:35:03.050Z,18.40
2019-06-27T09:37:33.693Z,18.30
2019-06-27T09:40:04.776Z,18.40
2019-06-27T09:42:35.413Z,18.50
2019-06-27T10:44:19.368Z,18.20
2019-06-27T10:46:49.778Z,18.10
2019-06-27T10:49:20.324Z,18.40
2019-06-27T10:51:50.906Z,18.50
2019-06-27T10:54:21.408Z,19.00
2019-06-27T10:56:52.744Z,19.10
2019-06-27T10:59:23.479Z,19.40
2019-06-27T11:01:54.035Z,19.40
2019-06-27T11:04:24.533Z,19.20
2019-06-27T11:06:55.947Z,19.20
2019-06-27T11:09:26.851Z,19.10
2019-06-27T11:11:57.460Z,19.10
2019-06-27T11:14:29.037Z,19.40
2019-06-27T11:16:59.530Z,19.60
2019-06-27T11:19:30.114Z,19.80
2019-06-27T11:22:01.232Z,20.00
2019-06-27T11:24:31.825Z,20.10
2019-06-27T11:27:03.400Z,20.10
2019-06-27T11:29:33.941Z,20.10
2019-06-27T11:32:05.679Z,19.70
2019-06-27T11:34:36.825Z,19.70
2019-06-27T11:37:07.514Z,20.20
2019-06-27T11:39:38.842Z,19.90
2019-06-27T11:42:09.461Z,20.10
2019-06-27T11:44:40.605Z,20.10
2019-06-27T11:47:15.049Z,20.10
2019-06-27T11:49:49.729Z,20.20
2019-06-27T11:52:26.427Z,20.70
2019-06-27T11:54:56.410Z,21.00
2019-06-27T11:57:26.882Z,21.00
2019-06-27T11:59:58.060Z,21.00
2019-06-27T12:02:29.004Z,21.30
2019-06-27T12:04:59.583Z,21.30
2019-06-27T12:07:31.113Z,21.70
2019-06-27T12:10:02.046Z,21.30
2019-06-27T12:12:32.615Z,21.20
2019-06-27T12:15:03.328Z,21.00
2019-06-27T12:17:34.804Z,20.70
2019-06-27T12:20:06.383Z,20.30
2019-06-27T12:22:36.788Z,20.50
2019-06-27T12:25:08.630Z,20.70
2019-06-27T12:27:39.261Z,21.20
2019-06-27T12:30:10.132Z,21.30
2019-06-27T12:32:51.843Z,21.40
2019-06-27T12:35:14.597Z,21.30
2019-06-27T12:37:45.370Z,21.70
2019-06-27T12:40:16.970Z,21.90
2019-06-27T12:42:48.449Z,21.60
2019-06-27T12:45:19.366Z,21.80
2019-06-27T12:47:50.084Z,21.70
2019-06-27T12:50:20.865Z,21.50
2019-06-27T12:52:51.613Z,21.80
2019-06-27T12:55:22.764Z,21.90
2019-06-27T12:57:54.453Z,22.00
2019-06-27T13:00:28.401Z,21.50
2019-06-27T13:02:59.264Z,21.60
2019-06-27T13:05:30.252Z,21.80
2019-06-27T13:08:01.019Z,21.80
2019-06-27T13:10:35.964Z,21.80
2019-06-27T13:13:06.993Z,22.20
2019-06-27T13:15:37.550Z,21.70
2019-06-27T13:18:08.118Z,21.60
2019-06-27T13:20:53.109Z,22.10
2019-06-27T13:23:11.519Z,22.00
2019-06-27T13:25:41.940Z,22.00
2019-06-27T13:28:12.738Z,21.80
2019-06-27T13:30:43.872Z,21.80
2019-06-27T13:33:15.398Z,22.20
2019-06-27T13:35:49.018Z,22.20
2019-06-27T13:38:18.293Z,22.90
2019-06-27T13:40:48.870Z,22.90
2019-06-27T13:43:19.788Z,22.70
2019-06-27T13:45:50.436Z,23.00
2019-06-27T13:48:21.080Z,22.40
2019-06-27T13:50:59.436Z,22.30
2019-06-27T13:53:41.544Z,22.10
2019-06-27T13:56:29.678Z,22.10
2019-06-27T13:59:15.003Z,21.30
2019-06-27T14:02:28.239Z,21.20
2019-06-27T14:05:28.552Z,21.40
2019-06-27T14:08:01.227Z,21.70
2019-06-27T14:10:31.951Z,21.40
2019-06-27T14:13:02.791Z,21.30
2019-06-27T14:15:34.879Z,21.70
2019-06-27T14:18:05.529Z,21.70
2019-06-27T14:20:36.088Z,21.60
2019-06-27T14:23:06.720Z,21.50
2019-06-27T14:25:37.398Z,21.80
2019-06-27T14:28:08.032Z,21.80
2019-06-27T14:30:38.709Z,21.50
2019-06-27T14:33:09.601Z,21.40
2019-06-27T14:35:40.298Z,21.40
2019-06-27T14:38:10.856Z,21.60
2019-06-27T14:40:43.768Z,22.00
2019-06-27T14:43:14.231Z,21.90
2019-06-27T14:45:44.837Z,22.00
2019-06-27T14:48:16.512Z,21.90
2019-06-27T14:50:47.084Z,21.80
2019-06-27T14:53:17.706Z,21.70
2019-06-27T14:55:48.290Z,21.60
2019-06-27T14:58:18.929Z,21.30
2019-06-27T15:00:49.459Z,21.10
2019-06-27T15:03:20.027Z,21.40
2019-06-27T15:05:50.837Z,21.20
2019-06-27T15:08:22.011Z,21.00
2019-06-27T15:10:52.646Z,20.70
2019-06-27T15:13:23.252Z,20.60
2019-06-27T15:16:07.408Z,21.00
2019-06-27T15:18:26.010Z,21.10
2019-06-27T15:20:56.759Z,20.70
2019-06-27T15:23:29.220Z,20.80
2019-06-27T15:26:00.041Z,20.80
2019-06-27T15:28:34.090Z,20.90
2019-06-27T15:31:04.736Z,20.90
2019-06-27T15:33:38.517Z,21.00
2019-06-27T15:36:09.198Z,20.90
2019-06-27T15:38:39.914Z,20.80
2019-06-27T15:41:12.268Z,20.30
2019-06-27T15:43:42.901Z,20.30
2019-06-27T15:46:13.638Z,20.20
2019-06-27T15:48:44.295Z,19.80
2019-06-27T15:51:14.912Z,19.70
2019-06-27T15:53:45.978Z,20.10
2019-06-27T15:56:16.678Z,20.10
2019-06-27T15:58:48.187Z,19.90
2019-06-27T16:01:18.869Z,19.90
2019-06-27T16:03:49.647Z,20.10
2019-06-27T16:06:20.545Z,20.30
2019-06-27T16:08:52.550Z,20.10
2019-06-27T16:11:23.348Z,20.00
2019-06-27T16:13:53.997Z,20.00
2019-06-27T16:16:24.997Z,19.90
2019-06-27T16:18:55.696Z,20.00
2019-06-27T16:21:26.309Z,20.40
2019-06-27T16:23:56.895Z,20.30
2019-06-27T16:26:27.341Z,20.50
2019-06-27T16:28:58.053Z,20.70
2019-06-27T16:31:28.743Z,20.70
2019-06-27T16:33:59.470Z,20.20
2019-06-27T16:36:30.102Z,19.80
2019-06-27T16:39:00.733Z,19.70
2019-06-27T16:41:32.601Z,19.90
2019-06-27T16:44:03.508Z,19.90
2019-06-27T16:46:34.263Z,19.70
2019-06-27T16:49:05.281Z,19.80
2019-06-27T16:51:35.967Z,19.70
2019-06-27T16:54:06.961Z,19.80
2019-06-27T16:56:37.672Z,19.80
2019-06-27T16:59:08.307Z,19.70
2019-06-27T17:01:38.895Z,19.40
2019-06-27T17:04:09.511Z,19.20
2019-06-27T17:06:42.696Z,19.00
2019-06-27T17:09:13.491Z,19.30
2019-06-27T17:11:44.063Z,19.00
2019-06-27T17:14:15.727Z,18.90
2019-06-27T17:16:46.708Z,18.90
2019-06-27T17:19:18.784Z,19.00
2019-06-27T17:21:49.315Z,19.20
2019-06-27T17:24:19.855Z,19.30
2019-06-27T17:26:50.695Z,19.10
2019-06-27T17:29:21.392Z,19.10
2019-06-27T17:31:52.437Z,18.80
2019-06-27T17:34:24.712Z,19.00
2019-06-27T17:36:57.793Z,18.70
2019-06-27T17:39:27.549Z,18.80
2019-06-27T17:41:58.263Z,19.00
2019-06-27T17:44:29.863Z,18.80
2019-06-27T17:47:02.273Z,18.80
2019-06-27T17:49:33.094Z,18.80
2019-06-27T17:52:03.901Z,19.00
2019-06-27T17:54:34.526Z,18.90
2019-06-27T17:57:05.131Z,18.80
2019-06-27T17:59:35.717Z,18.70
2019-06-27T18:02:06.337Z,18.60
2019-06-27T18:04:36.821Z,18.50
2019-06-27T18:07:14.069Z,18.40
2019-06-27T18:09:41.532Z,18.40
2019-06-27T18:12:12.256Z,18.10
2019-06-27T18:14:43.116Z,18.20
2019-06-27T18:17:13.551Z,18.20
2019-06-27T18:19:44.122Z,18.10
2019-06-27T18:22:14.707Z,18.20
2019-06-27T18:24:45.511Z,17.90
2019-06-27T18:27:16.389Z,17.90
2019-06-27T18:29:48.037Z,18.00
2019-06-27T18:32:19.825Z,17.90
2019-06-27T18:34:50.478Z,18.00
2019-06-27T18:37:29.657Z,18.00
2019-06-27T18:39:54.369Z,17.80
2019-06-27T18:42:25.061Z,17.80
2019-06-27T18:44:55.681Z,17.50
2019-06-27T18:47:27.168Z,17.40
2019-06-27T18:49:57.744Z,17.40
2019-06-27T18:52:29.090Z,17.40
2019-06-27T18:55:00.331Z,17.40
2019-06-27T18:57:31.068Z,17.40
2019-06-27T19:00:02.250Z,17.30
2019-06-27T19:02:34.014Z,17.30
2019-06-27T19:05:05.590Z,17.40
2019-06-27T19:07:45.318Z,17.30
2019-06-27T19:10:10.974Z,17.30
2019-06-27T19:12:42.524Z,17.30
2019-06-27T19:15:13.333Z,17.20
2019-06-27T19:17:43.876Z,17.10
2019-06-27T19:20:24.155Z,17.00
2019-06-27T19:23:05.196Z,16.90
2019-06-27T19:25:36.779Z,16.90
2019-06-27T19:28:07.397Z,16.70
2019-06-27T19:30:37.989Z,16.90
2019-06-27T19:33:08.489Z,16.80
2019-06-27T19:35:39.031Z,16.80
2019-06-27T19:38:09.585Z,16.80
2019-06-27T19:40:40.548Z,16.80
2019-06-27T19:43:26.590Z,16.70
2019-06-27T19:45:44.268Z,16.70
2019-06-27T19:48:14.691Z,16.70
2019-06-27T19:50:45.255Z,16.70
2019-06-27T19:53:15.849Z,16.80
2019-06-27T19:55:46.744Z,16.80
2019-06-27T19:58:17.362Z,16.80
2019-06-27T20:00:49.609Z,16.70
2019-06-27T20:03:20.253Z,16.60
2019-06-27T20:05:50.946Z,16.60
2019-06-27T20:08:21.514Z,16.50
2019-06-27T20:10:52.760Z,16.50
2019-06-27T20:13:24.941Z,16.50
2019-06-27T20:15:55.548Z,16.40
2019-06-27T20:18:26.245Z,16.40
2019-06-27T20:20:56.701Z,16.40
2019-06-27T20:23:27.315Z,16.30
2019-06-27T20:25:58.008Z,16.40
2019-06-27T20:28:28.572Z,16.40
2019-06-27T20:31:00.187Z,16.20
2019-06-27T20:33:30.920Z,16.20
2019-06-27T20:36:01.536Z,16.10
2019-06-27T20:38:35.124Z,16.20
2019-06-27T20:41:04.740Z,16.20
2019-06-27T20:43:37.077Z,16.20
2019-06-27T20:46:07.727Z,16.30
2019-06-27T20:48:38.324Z,16.30
2019-06-27T20:51:08.874Z,16.30
2019-06-27T20:53:40.108Z,16.20
2019-06-27T20:56:10.576Z,16.20
2019-06-27T20:58:41.222Z,16.20
2019-06-27T21:01:11.897Z,16.20
2019-06-27T21:03:42.531Z,16.20
2019-06-27T21:06:13.191Z,16.20
2019-06-27T21:08:51.091Z,16.30
2019-06-27T21:11:17.108Z,16.20
2019-06-27T21:13:47.997Z,16.30
2019-06-27T21:16:18.593Z,16.30
2019-06-27T21:18:49.310Z,16.40
2019-06-27T21:21:20.109Z,16.40
2019-06-27T21:23:52.240Z,16.20
2019-06-27T21:26:22.745Z,16.30
2019-06-27T21:28:53.202Z,16.30
2019-06-27T21:31:24.067Z,16.30
2019-06-27T21:33:54.674Z,16.20
2019-06-27T21:36:25.387Z,16.10
2019-06-27T21:39:07.148Z,16.00
2019-06-27T21:41:28.753Z,16.10
2019-06-27T21:44:04.035Z,16.20
2019-06-27T21:46:59.237Z,16.10
2019-06-27T21:49:30.166Z,16.00
2019-06-27T21:52:00.773Z,15.90
2019-06-27T21:54:31.374Z,15.90
2019-06-27T21:57:02.009Z,16.00
2019-06-27T21:59:32.838Z,15.90
2019-06-27T22:02:03.525Z,15.80
2019-06-27T22:04:34.218Z,16.00
2019-06-27T22:07:04.915Z,15.90
2019-06-27T22:09:35.656Z,16.00
2019-06-27T22:12:06.720Z,16.10
2019-06-27T22:14:37.931Z,16.10
2019-06-27T22:17:08.630Z,16.00
2019-06-27T22:19:39.347Z,16.00
2019-06-27T22:22:12.798Z,16.00
2019-06-27T22:24:43.541Z,16.00
2019-06-27T22:27:14.199Z,15.90
2019-06-27T22:29:44.727Z,15.90
2019-06-27T22:32:15.410Z,15.80
2019-06-27T22:34:46.310Z,15.80
2019-06-27T22:37:23.900Z,15.60
2019-06-27T22:40:13.218Z,15.60
2019-06-27T22:43:04.208Z,15.60
2019-06-27T22:45:52.428Z,15.80
2019-06-27T22:48:22.448Z,15.70
2019-06-27T22:51:12.857Z,15.60
2019-06-27T22:53:52.592Z,15.60
2019-06-27T22:56:23.355Z,15.70
2019-06-27T22:58:53.953Z,15.60
2019-06-27T23:01:24.858Z,15.70
2019-06-27T23:03:55.482Z,15.70
2019-06-27T23:06:26.204Z,15.70
2019-06-27T23:08:57.020Z,15.70
2019-06-27T23:11:27.593Z,15.70
2019-06-27T23:13:58.195Z,15.60
2019-06-27T23:16:30.276Z,15.70
2019-06-27T23:19:01.635Z,15.60
2019-06-27T23:21:32.268Z,15.60
2019-06-27T23:24:03.749Z,15.70
2019-06-27T23:26:34.414Z,15.70
2019-06-27T23:29:05.028Z,15.70
2019-06-27T23:31:36.277Z,15.70
2019-06-27T23:34:06.945Z,15.60
2019-06-27T23:36:37.501Z,15.60
2019-06-27T23:39:08.133Z,15.60
2019-06-27T23:41:38.704Z,15.60
2019-06-27T23:44:09.393Z,15.50
2019-06-27T23:46:41.463Z,15.60
2019-06-27T23:49:12.517Z,15.60
2019-06-27T23:51:43.115Z,15.50
2019-06-27T23:54:13.722Z,15.40
2019-06-27T23:56:44.224Z,15.50
2019-06-27T23:59:14.840Z,15.50
